This is the latest recevied weather packets stored in our database for station/object SV2RIM-2. If no packets are shown the sender has not sent any weather packets the latest 10 day(s).
| Time | Temp. | Humidity | Pressure | Rain* | Wind** | Luminosity | Snow |
|---|---|---|---|---|---|---|---|
| 1777128319 | 28.33° C | 32% | 1012.6 hPa | - | - | - | - |
| 1777127719 | 28.33° C | 32% | 1012.6 hPa | - | - | - | - |
| 1777127119 | 28.89° C | 32% | 1012.7 hPa | - | - | - | - |
| 1777126519 | 28.89° C | 34% | 1012.7 hPa | - | - | - | - |
| 1777125919 | 27.78° C | 36% | 1012.8 hPa | - | - | - | - |
| 1777125319 | 28.33° C | 35% | 1012.9 hPa | - | - | - | - |
| 1777124719 | 27.22° C | 37% | 1013 hPa | - | - | - | - |
| 1777124119 | 27.78° C | 37% | 1013.1 hPa | - | - | - | - |
| 1777123519 | 26.67° C | 39% | 1013.2 hPa | - | - | - | - |
| 1777122919 | 27.22° C | 39% | 1013.2 hPa | - | - | - | - |
| 1777122319 | 27.22° C | 40% | 1013.3 hPa | - | - | - | - |
| 1777121719 | 26.11° C | 43% | 1013.4 hPa | - | - | - | - |
| 1777121119 | 26.11° C | 43% | 1013.6 hPa | - | - | - | - |
| 1777120519 | 25.56° C | 45% | 1013.7 hPa | - | - | - | - |
| 1777119919 | 26.11° C | 44% | 1013.9 hPa | - | - | - | - |
| 1777119319 | 26.11° C | 44% | 1014.1 hPa | - | - | - | - |
| 1777118719 | 25.56° C | 44% | 1014.2 hPa | - | - | - | - |
| 1777118119 | 25.56° C | 45% | 1014.3 hPa | - | - | - | - |
| 1777117519 | 25.56° C | 45% | 1014.5 hPa | - | - | - | - |
| 1777116919 | 25.56° C | 44% | 1014.6 hPa | - | - | - | - |
| 1777116319 | 25° C | 45% | 1014.6 hPa | - | - | - | - |
| 1777115719 | 25.56° C | 43% | 1014.7 hPa | - | - | - | - |
| 1777115119 | 24.44° C | 44% | 1014.7 hPa | - | - | - | - |
| 1777114519 | 23.89° C | 44% | 1014.9 hPa | - | - | - | - |
| 1777113919 | 24.44° C | 42% | 1015 hPa | - | - | - | - |
* Rain since midnight (hover to see other rain measurements)
** Current wind speed in m/s (hover to see current wind gust speed)